createdAt,value
2022-09-15T00:00:25.212Z,12.80
2022-09-15T00:03:30.256Z,12.33
2022-09-15T00:06:35.457Z,12.50
2022-09-15T00:09:40.683Z,12.65
2022-09-15T00:12:45.735Z,12.05
2022-09-15T00:15:53.668Z,12.50
2022-09-15T00:18:59.170Z,12.35
2022-09-15T00:22:04.393Z,12.48
2022-09-15T00:25:09.401Z,12.27
2022-09-15T00:28:16.089Z,12.38
2022-09-15T00:31:24.936Z,13.68
2022-09-15T00:34:30.163Z,13.07
2022-09-15T00:37:36.409Z,13.43
2022-09-15T00:40:46.481Z,13.07
2022-09-15T00:43:53.266Z,13.27
2022-09-15T00:47:18.354Z,13.68
2022-09-15T00:50:24.257Z,12.23
2022-09-15T00:53:30.551Z,12.05
2022-09-15T00:56:36.828Z,11.02
2022-09-15T00:59:43.053Z,12.27
2022-09-15T01:02:51.516Z,11.43
2022-09-15T01:05:58.192Z,14.68
2022-09-15T01:09:05.171Z,14.07
2022-09-15T01:12:10.455Z,14.75
2022-09-15T01:15:16.158Z,15.07
2022-09-15T01:18:25.217Z,14.98
2022-09-15T01:21:34.635Z,12.88
2022-09-15T01:24:46.310Z,13.63
2022-09-15T01:28:15.386Z,14.73
2022-09-15T01:31:26.568Z,15.45
2022-09-15T01:34:33.844Z,14.70
2022-09-15T01:37:40.847Z,15.60
2022-09-15T01:40:48.547Z,14.32
2022-09-15T01:43:57.009Z,14.85
2022-09-15T01:47:06.418Z,17.80
2022-09-15T01:50:13.914Z,15.90
2022-09-15T01:53:20.313Z,14.60
2022-09-15T01:56:25.427Z,16.58
2022-09-15T01:59:31.069Z,16.10
2022-09-15T02:02:42.130Z,15.43
2022-09-15T02:05:51.567Z,15.82
2022-09-15T02:09:00.876Z,13.80
2022-09-15T02:12:09.679Z,15.05
2022-09-15T02:15:16.230Z,15.25
2022-09-15T02:18:34.866Z,15.07
2022-09-15T02:21:44.642Z,14.90
2022-09-15T02:24:51.555Z,14.48
2022-09-15T02:27:58.611Z,13.35
2022-09-15T02:31:05.333Z,13.98
2022-09-15T02:34:15.508Z,14.80
2022-09-15T02:37:21.679Z,13.80
2022-09-15T02:40:27.072Z,14.15
2022-09-15T02:43:32.349Z,13.98
2022-09-15T02:46:37.444Z,13.32
2022-09-15T02:49:45.418Z,12.38
2022-09-15T02:52:50.405Z,13.23
2022-09-15T02:55:55.524Z,12.93
2022-09-15T02:59:00.928Z,13.25
2022-09-15T03:02:05.972Z,12.70
2022-09-15T03:05:14.657Z,10.60
2022-09-15T03:08:19.997Z,12.07
2022-09-15T03:11:26.999Z,11.88
2022-09-15T03:14:33.065Z,11.02
2022-09-15T03:17:38.989Z,12.73
2022-09-15T03:20:46.767Z,12.05
2022-09-15T03:23:52.019Z,11.30
2022-09-15T03:26:57.193Z,10.90
2022-09-15T03:30:02.763Z,11.30
2022-09-15T03:33:08.572Z,10.57
2022-09-15T03:36:16.144Z,11.00
2022-09-15T03:39:21.227Z,10.52
2022-09-15T03:42:26.154Z,10.27
2022-09-15T03:45:31.244Z,10.27
2022-09-15T03:48:37.546Z,9.95
2022-09-15T03:51:45.358Z,10.30
2022-09-15T03:54:51.526Z,10.48
2022-09-15T03:57:56.475Z,9.95
2022-09-15T04:01:01.460Z,10.52
2022-09-15T04:04:07.225Z,10.52
2022-09-15T04:07:14.987Z,10.50
2022-09-15T04:10:20.661Z,9.50
2022-09-15T04:13:28.693Z,10.85
2022-09-15T04:16:34.191Z,9.77
2022-09-15T04:19:39.809Z,10.05
2022-09-15T04:22:47.740Z,10.77
2022-09-15T04:25:59.940Z,10.75
2022-09-15T04:29:05.643Z,10.98
2022-09-15T04:32:10.955Z,10.45
2022-09-15T04:35:16.204Z,10.20
2022-09-15T04:38:24.323Z,10.45
2022-09-15T04:41:29.680Z,11.70
2022-09-15T04:44:35.135Z,11.57
2022-09-15T04:47:40.375Z,10.32
2022-09-15T04:50:45.717Z,11.02
2022-09-15T04:53:53.462Z,10.48
2022-09-15T04:56:58.472Z,9.55
2022-09-15T05:00:04.967Z,9.75
2022-09-15T05:03:10.165Z,9.95
2022-09-15T05:06:15.998Z,9.60
2022-09-15T05:09:23.688Z,9.90
2022-09-15T05:12:28.823Z,9.73
2022-09-15T05:15:33.890Z,9.32
2022-09-15T05:18:39.260Z,9.35
2022-09-15T05:21:44.471Z,9.48
2022-09-15T05:24:52.416Z,8.93
2022-09-15T05:27:57.343Z,9.93
2022-09-15T05:31:02.327Z,9.07
2022-09-15T05:34:08.389Z,9.82
2022-09-15T05:37:13.465Z,8.30
2022-09-15T05:40:22.435Z,10.20
2022-09-15T05:43:27.571Z,9.65
2022-09-15T05:46:32.808Z,8.45
2022-09-15T05:49:38.323Z,8.05
2022-09-15T05:52:43.846Z,8.85
2022-09-15T05:55:51.457Z,8.05
2022-09-15T05:58:56.794Z,7.70
2022-09-15T06:02:01.978Z,7.75
2022-09-15T06:05:07.595Z,7.80
2022-09-15T06:08:12.946Z,7.22
2022-09-15T06:11:21.612Z,6.65
2022-09-15T06:14:27.233Z,4.65
2022-09-15T06:17:34.598Z,4.70
2022-09-15T06:20:40.314Z,4.25
2022-09-15T06:23:50.060Z,4.60
2022-09-15T06:26:58.986Z,3.75
2022-09-15T06:30:04.174Z,4.38
2022-09-15T06:33:09.977Z,3.05
2022-09-15T06:36:15.118Z,3.38
2022-09-15T06:39:20.563Z,3.78
2022-09-15T06:42:28.391Z,3.70
2022-09-15T06:45:33.635Z,4.63
2022-09-15T06:48:39.298Z,3.63
2022-09-15T06:51:44.343Z,3.47
2022-09-15T06:54:50.001Z,3.40
2022-09-15T06:57:57.916Z,4.35
2022-09-15T07:01:09.036Z,3.95
2022-09-15T07:04:14.235Z,3.88
2022-09-15T07:07:19.489Z,3.63
2022-09-15T07:10:24.538Z,3.22
2022-09-15T07:13:32.274Z,3.53
2022-09-15T07:16:37.429Z,3.83
2022-09-15T07:19:43.381Z,3.88
2022-09-15T07:22:48.448Z,3.85
2022-09-15T07:25:53.535Z,4.28
2022-09-15T07:29:02.092Z,4.63
2022-09-15T07:32:07.341Z,5.70
2022-09-15T07:35:12.858Z,4.38
2022-09-15T07:38:17.926Z,4.07
2022-09-15T07:41:23.984Z,3.50
2022-09-15T07:44:31.863Z,3.97
2022-09-15T07:47:37.130Z,3.25
2022-09-15T07:50:42.474Z,3.55
2022-09-15T07:53:48.267Z,2.92
2022-09-15T07:56:53.847Z,2.72
2022-09-15T08:00:01.436Z,2.72
2022-09-15T08:06:23.017Z,2.83
2022-09-15T08:09:28.178Z,2.45
2022-09-15T08:12:34.082Z,2.45
2022-09-15T08:15:42.995Z,2.20
2022-09-15T08:18:48.219Z,2.72
2022-09-15T08:21:54.008Z,2.70
2022-09-15T08:24:59.073Z,2.65
2022-09-15T08:28:04.191Z,2.30
2022-09-15T08:31:12.870Z,2.80
2022-09-15T08:34:18.916Z,2.28
2022-09-15T08:37:27.372Z,2.65
2022-09-15T08:40:35.477Z,2.10
2022-09-15T08:43:44.508Z,2.63
2022-09-15T08:46:54.677Z,2.35
2022-09-15T08:50:02.808Z,2.10
2022-09-15T08:56:17.757Z,2.40
2022-09-15T08:59:23.378Z,2.77
2022-09-15T09:02:41.104Z,2.92
2022-09-15T09:05:53.209Z,2.72
2022-09-15T09:09:03.455Z,2.70
2022-09-15T09:12:16.670Z,3.08
2022-09-15T09:15:29.821Z,2.85
2022-09-15T09:18:47.185Z,3.08
2022-09-15T09:21:55.277Z,3.50
2022-09-15T09:25:11.486Z,3.50
2022-09-15T09:28:31.025Z,3.72
2022-09-15T09:31:38.216Z,3.58
2022-09-15T09:34:50.202Z,3.28
2022-09-15T09:37:56.266Z,3.72
2022-09-15T09:41:02.763Z,3.45
2022-09-15T09:44:09.954Z,3.40
2022-09-15T09:47:15.758Z,3.20
2022-09-15T09:50:35.766Z,3.72
2022-09-15T09:53:43.420Z,3.38
2022-09-15T09:56:48.667Z,3.20
2022-09-15T09:59:54.488Z,2.95
2022-09-15T10:02:59.766Z,2.50
2022-09-15T10:06:07.085Z,2.70
2022-09-15T10:09:18.334Z,3.20
2022-09-15T10:12:26.063Z,2.42
2022-09-15T10:15:32.074Z,2.38
2022-09-15T10:18:38.842Z,3.88
2022-09-15T10:21:43.955Z,3.15
2022-09-15T10:24:53.434Z,2.42
2022-09-15T10:28:05.003Z,2.70
2022-09-15T10:31:11.350Z,2.75
2022-09-15T10:34:30.716Z,2.55
2022-09-15T10:37:37.830Z,2.67
2022-09-15T10:40:48.021Z,2.97
2022-09-15T10:44:07.216Z,2.97
2022-09-15T10:47:17.300Z,2.75
2022-09-15T10:50:27.608Z,3.10
2022-09-15T10:53:39.883Z,3.15
2022-09-15T10:56:49.292Z,3.30
2022-09-15T10:59:58.069Z,4.53
2022-09-15T11:03:11.860Z,4.00
2022-09-15T11:06:20.966Z,3.70
2022-09-15T11:09:28.015Z,3.33
2022-09-15T11:12:39.835Z,3.13
2022-09-15T11:15:52.617Z,2.90
2022-09-15T11:19:07.189Z,3.47
2022-09-15T11:22:14.360Z,3.55
2022-09-15T11:25:22.051Z,3.15
2022-09-15T11:28:32.993Z,4.03
2022-09-15T11:31:41.983Z,4.28
2022-09-15T11:34:49.998Z,4.18
2022-09-15T11:37:57.416Z,4.45
2022-09-15T11:41:13.280Z,4.47
2022-09-15T11:44:25.455Z,4.90
2022-09-15T11:47:33.520Z,3.80
2022-09-15T11:50:40.894Z,4.30
2022-09-15T11:53:51.314Z,4.03
2022-09-15T11:56:56.827Z,4.40
2022-09-15T12:00:07.192Z,4.10
2022-09-15T12:03:19.784Z,3.97
2022-09-15T12:06:28.028Z,4.68
2022-09-15T12:09:33.283Z,4.72
2022-09-15T12:12:39.267Z,5.53
2022-09-15T12:15:46.990Z,4.25
2022-09-15T12:18:53.695Z,5.00
2022-09-15T12:22:01.019Z,4.78
2022-09-15T12:25:08.263Z,4.25
2022-09-15T12:32:20.098Z,4.38
2022-09-15T12:35:43.115Z,4.60
2022-09-15T12:38:50.900Z,4.32
2022-09-15T12:41:57.394Z,4.13
2022-09-15T12:45:03.892Z,4.00
2022-09-15T12:48:15.730Z,4.72
2022-09-15T12:51:25.414Z,4.18
2022-09-15T12:54:31.968Z,3.75
2022-09-15T12:57:39.030Z,6.00
2022-09-15T13:04:30.854Z,3.90
2022-09-15T13:07:55.721Z,3.35
2022-09-15T13:11:04.890Z,3.65
2022-09-15T13:14:15.031Z,3.58
2022-09-15T13:17:22.939Z,3.47
2022-09-15T13:20:32.452Z,3.53
2022-09-15T13:23:43.175Z,3.78
2022-09-15T13:26:51.000Z,3.20
2022-09-15T13:29:58.783Z,3.53
2022-09-15T13:33:07.807Z,3.70
2022-09-15T13:36:20.153Z,4.30
2022-09-15T13:39:39.895Z,3.40
2022-09-15T13:42:53.041Z,4.68
2022-09-15T13:46:07.134Z,4.35
2022-09-15T13:49:23.335Z,3.63
2022-09-15T13:52:36.141Z,3.72
2022-09-15T13:55:45.713Z,3.75
2022-09-15T13:58:59.002Z,3.60
2022-09-15T14:02:13.196Z,3.65
2022-09-15T14:05:18.838Z,4.05
2022-09-15T14:08:25.574Z,3.20
2022-09-15T14:11:34.523Z,2.80
2022-09-15T14:14:40.877Z,3.15
2022-09-15T14:17:48.596Z,3.17
2022-09-15T14:21:00.663Z,2.95
2022-09-15T14:24:07.285Z,3.33
2022-09-15T14:27:15.127Z,3.60
2022-09-15T14:30:22.788Z,3.85
2022-09-15T14:33:29.357Z,3.73
2022-09-15T14:36:35.094Z,3.10
2022-09-15T14:39:41.139Z,3.63
2022-09-15T14:42:49.262Z,3.35
2022-09-15T14:46:02.106Z,3.70
2022-09-15T14:49:12.841Z,3.40
2022-09-15T14:55:24.422Z,3.45
2022-09-15T14:58:34.060Z,3.50
2022-09-15T15:01:41.042Z,3.88
2022-09-15T15:04:49.789Z,2.92
2022-09-15T15:07:55.599Z,2.70
2022-09-15T15:11:01.343Z,3.35
2022-09-15T15:14:11.764Z,2.97
2022-09-15T15:17:27.904Z,2.88
2022-09-15T15:20:33.373Z,3.20
2022-09-15T15:23:47.287Z,3.00
2022-09-15T15:26:53.204Z,2.70
2022-09-15T15:30:01.443Z,2.65
2022-09-15T15:33:09.452Z,2.72
2022-09-15T15:36:14.959Z,2.13
2022-09-15T15:39:25.147Z,2.45
2022-09-15T15:42:30.687Z,2.40
2022-09-15T15:45:39.046Z,2.08
2022-09-15T15:51:49.074Z,2.17
2022-09-15T15:54:54.153Z,2.40
2022-09-15T15:57:59.537Z,2.88
2022-09-15T16:01:07.309Z,2.10
2022-09-15T16:04:13.194Z,2.80
2022-09-15T16:07:20.814Z,2.40
2022-09-15T16:10:27.680Z,2.80
2022-09-15T16:13:33.285Z,2.65
2022-09-15T16:16:41.107Z,2.67
2022-09-15T16:19:46.331Z,3.03
2022-09-15T16:22:51.595Z,3.03
2022-09-15T16:25:58.114Z,3.38
2022-09-15T16:29:03.433Z,3.28
2022-09-15T16:32:12.939Z,3.30
2022-09-15T16:35:22.421Z,3.75
2022-09-15T16:38:28.725Z,3.05
2022-09-15T16:41:38.970Z,3.60
2022-09-15T16:44:44.369Z,4.45
2022-09-15T16:47:52.127Z,3.80
2022-09-15T16:51:17.204Z,3.63
2022-09-15T16:54:22.956Z,4.47
2022-09-15T16:57:27.975Z,3.63
2022-09-15T17:00:34.251Z,4.13
2022-09-15T17:03:43.658Z,3.70
2022-09-15T17:06:48.605Z,3.50
2022-09-15T17:09:53.732Z,3.95
2022-09-15T17:12:58.973Z,3.70
2022-09-15T17:16:04.563Z,5.45
2022-09-15T17:19:12.179Z,4.53
2022-09-15T17:22:17.229Z,3.80
2022-09-15T17:25:29.595Z,4.13
2022-09-15T17:28:36.837Z,3.75
2022-09-15T17:31:42.028Z,3.45
2022-09-15T17:34:49.641Z,3.80
2022-09-15T17:37:54.940Z,4.00
2022-09-15T17:40:59.961Z,3.50
2022-09-15T17:44:05.418Z,3.80
2022-09-15T17:47:10.785Z,6.50
2022-09-15T17:50:19.089Z,3.90
2022-09-15T17:53:27.075Z,4.15
2022-09-15T17:56:32.536Z,4.32
2022-09-15T17:59:37.626Z,4.30
2022-09-15T18:02:43.236Z,5.22
2022-09-15T18:05:51.176Z,4.57
2022-09-15T18:08:57.345Z,4.82
2022-09-15T18:12:02.595Z,5.25
2022-09-15T18:15:08.686Z,4.88
2022-09-15T18:18:16.120Z,4.95
2022-09-15T18:21:28.974Z,5.78
2022-09-15T18:24:34.164Z,5.57
2022-09-15T18:27:39.450Z,4.90
2022-09-15T18:30:45.409Z,4.78
2022-09-15T18:33:50.713Z,5.22
2022-09-15T18:36:58.632Z,5.40
2022-09-15T18:40:03.767Z,5.63
2022-09-15T18:43:09.089Z,5.75
2022-09-15T18:46:14.262Z,5.43
2022-09-15T18:49:19.407Z,5.55
2022-09-15T18:52:27.363Z,6.05
2022-09-15T18:55:32.831Z,5.53
2022-09-15T18:58:37.990Z,8.02
2022-09-15T19:01:43.179Z,7.20
2022-09-15T19:04:48.635Z,7.65
2022-09-15T19:07:56.658Z,7.05
2022-09-15T19:11:02.709Z,7.90
2022-09-15T19:14:07.941Z,9.95
2022-09-15T19:17:13.446Z,9.73
2022-09-15T19:20:18.723Z,9.77
2022-09-15T19:23:26.588Z,9.32
2022-09-15T19:26:31.624Z,9.97
2022-09-15T19:29:37.534Z,10.77
2022-09-15T19:32:43.346Z,9.75
2022-09-15T19:35:56.280Z,9.60
2022-09-15T19:39:14.993Z,9.75
2022-09-15T19:42:20.249Z,8.55
2022-09-15T19:45:25.219Z,11.68
2022-09-15T19:48:31.082Z,12.63
2022-09-15T19:51:37.056Z,8.68
2022-09-15T19:54:44.784Z,8.00
2022-09-15T19:57:49.919Z,8.02
2022-09-15T20:00:55.905Z,10.35
2022-09-15T20:04:02.301Z,10.95
2022-09-15T20:07:07.828Z,9.88
2022-09-15T20:10:15.604Z,8.40
2022-09-15T20:13:21.106Z,9.13
2022-09-15T20:16:26.781Z,9.73
2022-09-15T20:19:31.909Z,8.00
2022-09-15T20:22:37.019Z,8.63
2022-09-15T20:25:45.204Z,8.52
2022-09-15T20:28:50.394Z,7.85
2022-09-15T20:31:55.384Z,7.93
2022-09-15T20:35:00.712Z,7.63
2022-09-15T20:38:05.672Z,7.32
2022-09-15T20:41:14.456Z,9.00
2022-09-15T20:47:24.449Z,9.35
2022-09-15T20:50:30.632Z,9.90
2022-09-15T20:53:36.497Z,9.52
2022-09-15T20:56:44.163Z,11.60
2022-09-15T20:59:49.310Z,11.27
2022-09-15T21:02:54.681Z,11.88
2022-09-15T21:06:01.705Z,13.50
2022-09-15T21:09:07.583Z,14.43
2022-09-15T21:12:16.144Z,14.63
2022-09-15T21:15:21.537Z,14.52
2022-09-15T21:18:27.501Z,14.55
2022-09-15T21:21:34.038Z,16.63
2022-09-15T21:24:39.112Z,14.85
2022-09-15T21:27:47.180Z,14.90
2022-09-15T21:30:53.022Z,15.77
2022-09-15T21:33:58.582Z,14.80
2022-09-15T21:37:03.705Z,15.02
2022-09-15T21:40:09.912Z,14.48
2022-09-15T21:43:17.914Z,13.43
2022-09-15T21:46:23.885Z,14.70
2022-09-15T21:49:28.975Z,11.77
2022-09-15T21:52:34.239Z,11.95
2022-09-15T21:55:39.930Z,11.27
2022-09-15T21:58:47.734Z,10.88
2022-09-15T22:01:53.688Z,10.52
2022-09-15T22:04:59.908Z,11.65
2022-09-15T22:08:05.433Z,9.50
2022-09-15T22:11:11.249Z,11.43
2022-09-15T22:14:18.869Z,11.20
2022-09-15T22:17:24.070Z,10.43
2022-09-15T22:20:29.465Z,10.88
2022-09-15T22:23:34.601Z,10.48
2022-09-15T22:26:40.424Z,8.57
2022-09-15T22:29:48.032Z,9.32
2022-09-15T22:32:53.106Z,9.53
2022-09-15T22:35:58.572Z,9.23
2022-09-15T22:39:05.741Z,9.77
2022-09-15T22:42:11.366Z,9.52
2022-09-15T22:45:19.149Z,9.32
2022-09-15T22:48:24.249Z,9.27
2022-09-15T22:51:29.548Z,8.88
2022-09-15T22:54:34.623Z,10.05
2022-09-15T22:57:39.935Z,8.85
2022-09-15T23:00:47.948Z,9.60
2022-09-15T23:03:53.822Z,9.02
2022-09-15T23:06:58.762Z,9.15
2022-09-15T23:10:03.930Z,9.23
2022-09-15T23:13:08.886Z,8.20
2022-09-15T23:16:16.766Z,8.57
2022-09-15T23:19:22.077Z,8.85
2022-09-15T23:22:27.131Z,8.93
2022-09-15T23:25:32.153Z,8.63
2022-09-15T23:28:37.509Z,8.52
2022-09-15T23:31:45.429Z,8.05
2022-09-15T23:34:50.704Z,9.23
2022-09-15T23:37:55.785Z,8.00
2022-09-15T23:41:00.878Z,8.55
2022-09-15T23:44:06.111Z,8.98
2022-09-15T23:47:14.063Z,9.32
2022-09-15T23:50:19.301Z,8.68
2022-09-15T23:53:24.492Z,9.27
2022-09-15T23:56:29.732Z,8.98
2022-09-15T23:59:34.982Z,9.60
